createdAt,value
2019-05-01T00:01:20.486Z,9.81
2019-05-01T00:04:06.669Z,9.54
2019-05-01T00:06:40.384Z,9.77
2019-05-01T00:09:12.304Z,9.67
2019-05-01T00:11:44.018Z,9.64
2019-05-01T00:14:15.410Z,9.48
2019-05-01T00:16:46.806Z,9.55
2019-05-01T00:19:17.775Z,9.66
2019-05-01T00:21:48.795Z,9.42
2019-05-01T00:24:19.841Z,9.44
2019-05-01T00:26:50.826Z,9.50
2019-05-01T00:29:22.035Z,9.50
2019-05-01T00:31:53.010Z,9.16
2019-05-01T00:34:24.265Z,9.34
2019-05-01T00:36:55.392Z,9.32
2019-05-01T00:39:26.358Z,9.40
2019-05-01T00:41:57.331Z,9.25
2019-05-01T00:44:28.430Z,9.23
2019-05-01T00:46:59.413Z,9.24
2019-05-01T00:49:30.518Z,9.25
2019-05-01T00:52:01.511Z,9.24
2019-05-01T00:54:34.217Z,9.32
2019-05-01T00:57:24.162Z,9.01
2019-05-01T01:00:13.024Z,9.09
2019-05-01T01:02:47.515Z,9.10
2019-05-01T01:05:18.472Z,8.95
2019-05-01T01:07:49.446Z,8.99
2019-05-01T01:10:20.567Z,9.02
2019-05-01T01:12:51.646Z,9.05
2019-05-01T01:15:22.606Z,8.74
2019-05-01T01:17:53.583Z,8.60
2019-05-01T01:20:24.591Z,8.74
2019-05-01T01:22:55.721Z,8.87
2019-05-01T01:25:26.805Z,8.80
2019-05-01T01:27:57.928Z,8.78
2019-05-01T01:30:29.039Z,8.75
2019-05-01T01:33:00.150Z,8.61
2019-05-01T01:35:31.126Z,8.78
2019-05-01T01:38:02.225Z,8.79
2019-05-01T01:40:33.782Z,8.68
2019-05-01T01:43:35.838Z,8.47
2019-05-01T01:46:09.048Z,8.53
2019-05-01T01:48:40.470Z,8.54
2019-05-01T01:51:11.704Z,8.59
2019-05-01T01:53:43.172Z,8.55
2019-05-01T01:56:14.621Z,8.49
2019-05-01T01:58:46.077Z,8.47
2019-05-01T02:01:45.215Z,8.42
2019-05-01T02:04:41.232Z,8.53
2019-05-01T02:07:12.549Z,8.44
2019-05-01T02:09:43.670Z,8.14
2019-05-01T02:12:15.175Z,8.16
2019-05-01T02:14:46.228Z,8.19
2019-05-01T02:17:17.269Z,8.13
2019-05-01T02:19:48.254Z,8.22
2019-05-01T02:22:19.209Z,8.11
2019-05-01T02:24:50.196Z,8.19
2019-05-01T02:27:29.667Z,8.25
2019-05-01T02:30:03.253Z,8.19
2019-05-01T02:32:35.589Z,8.16
2019-05-01T02:35:07.009Z,8.13
2019-05-01T02:37:39.731Z,8.03
2019-05-01T02:41:01.104Z,7.81
2019-05-01T02:43:36.230Z,7.97
2019-05-01T02:46:09.359Z,7.88
2019-05-01T02:48:45.189Z,7.89
2019-05-01T02:51:17.268Z,7.90
2019-05-01T02:53:50.177Z,7.83
2019-05-01T02:56:36.828Z,7.84
2019-05-01T02:59:09.806Z,7.81
2019-05-01T03:01:47.147Z,7.72
2019-05-01T03:04:14.459Z,7.88
2019-05-01T03:06:46.448Z,7.75
2019-05-01T03:09:18.977Z,7.82
2019-05-01T03:11:53.135Z,7.75
2019-05-01T03:14:28.019Z,7.77
2019-05-01T03:17:02.954Z,7.65
2019-05-01T03:19:53.937Z,7.77
2019-05-01T03:22:44.276Z,7.53
2019-05-01T03:25:15.809Z,7.60
2019-05-01T03:27:47.027Z,7.64
2019-05-01T03:30:18.195Z,7.65
2019-05-01T03:32:49.546Z,7.64
2019-05-01T03:35:20.758Z,7.47
2019-05-01T03:37:52.026Z,7.65
2019-05-01T03:40:23.356Z,7.58
2019-05-01T03:42:54.518Z,7.60
2019-05-01T03:45:26.268Z,7.49
2019-05-01T03:47:57.452Z,7.59
2019-05-01T03:50:28.693Z,7.70
2019-05-01T03:52:59.930Z,7.77
2019-05-01T03:55:31.257Z,7.59
2019-05-01T03:58:02.537Z,7.48
2019-05-01T04:00:52.815Z,7.42
2019-05-01T04:03:31.124Z,7.51
2019-05-01T04:06:02.547Z,7.62
2019-05-01T04:08:34.040Z,7.53
2019-05-01T04:11:05.829Z,7.46
2019-05-01T04:13:36.859Z,7.42
2019-05-01T04:16:08.483Z,7.59
2019-05-01T04:18:40.152Z,7.58
2019-05-01T04:21:11.283Z,7.67
2019-05-01T04:23:43.783Z,7.65
2019-05-01T04:26:15.209Z,7.55
2019-05-01T04:28:53.030Z,7.81
2019-05-01T04:31:52.237Z,7.83
2019-05-01T04:34:38.842Z,7.89
2019-05-01T04:37:11.533Z,7.99
2019-05-01T04:39:42.847Z,8.03
2019-05-01T04:42:14.010Z,7.99
2019-05-01T04:44:46.585Z,8.00
2019-05-01T04:47:18.471Z,7.94
2019-05-01T04:49:49.663Z,8.11
2019-05-01T04:52:20.723Z,8.18
2019-05-01T04:54:52.272Z,8.32
2019-05-01T04:57:23.825Z,8.17
2019-05-01T04:59:55.287Z,8.45
2019-05-01T05:02:32.978Z,8.44
2019-05-01T05:05:05.819Z,8.20
2019-05-01T05:07:37.473Z,7.99
2019-05-01T05:10:09.766Z,8.31
2019-05-01T05:12:46.582Z,8.67
2019-05-01T05:15:35.950Z,8.61
2019-05-01T05:18:08.303Z,8.64
2019-05-01T05:20:39.541Z,8.64
2019-05-01T05:23:10.988Z,8.67
2019-05-01T05:25:42.948Z,8.65
2019-05-01T05:28:15.438Z,8.76
2019-05-01T05:30:47.018Z,8.81
2019-05-01T05:33:20.189Z,8.86
2019-05-01T05:35:53.484Z,9.00
2019-05-01T05:38:32.886Z,9.08
2019-05-01T05:41:05.128Z,9.19
2019-05-01T05:43:37.289Z,9.01
2019-05-01T05:46:08.897Z,9.32
2019-05-01T05:48:40.253Z,9.29
2019-05-01T05:51:34.063Z,9.48
2019-05-01T05:54:14.655Z,9.43
2019-05-01T05:56:53.518Z,9.61
2019-05-01T05:59:29.066Z,9.63
2019-05-01T06:02:12.090Z,9.57
2019-05-01T06:05:13.688Z,9.29
2019-05-01T06:08:05.346Z,9.43
2019-05-01T06:10:53.548Z,9.72
2019-05-01T06:13:41.423Z,10.00
2019-05-01T06:16:19.814Z,10.07
2019-05-01T06:19:00.066Z,10.07
2019-05-01T06:21:46.823Z,10.29
2019-05-01T06:24:24.385Z,9.95
2019-05-01T06:26:55.845Z,10.17
2019-05-01T06:29:30.990Z,10.33
2019-05-01T06:32:00.097Z,10.47
2019-05-01T06:34:31.673Z,10.51
2019-05-01T06:37:02.813Z,10.79
2019-05-01T06:39:34.375Z,11.16
2019-05-01T06:42:09.819Z,11.64
2019-05-01T06:44:49.668Z,12.20
2019-05-01T06:47:32.840Z,12.39
2019-05-01T06:50:15.955Z,12.47
2019-05-01T06:52:47.648Z,12.62
2019-05-01T06:55:22.550Z,12.44
2019-05-01T06:57:52.220Z,12.70
2019-05-01T07:00:23.230Z,12.76
2019-05-01T07:02:56.001Z,13.17
2019-05-01T07:05:29.107Z,13.55
2019-05-01T07:08:00.749Z,14.16
2019-05-01T07:10:43.773Z,14.17
2019-05-01T07:13:06.599Z,14.45
2019-05-01T07:15:38.698Z,15.09
2019-05-01T07:18:11.494Z,16.10
2019-05-01T07:20:51.448Z,16.81
2019-05-01T07:23:24.034Z,17.44
2019-05-01T07:25:55.613Z,18.41
2019-05-01T07:28:28.773Z,19.37
2019-05-01T07:31:13.921Z,19.05
2019-05-01T07:33:47.131Z,20.65
2019-05-01T07:36:19.383Z,21.20
2019-05-01T07:38:50.824Z,19.66
2019-05-01T07:41:21.883Z,20.40
2019-05-01T07:44:17.903Z,21.38
2019-05-01T07:46:56.140Z,20.21
2019-05-01T07:49:57.941Z,20.80
2019-05-01T07:52:30.178Z,20.96
2019-05-01T07:55:01.491Z,19.87
2019-05-01T07:57:34.151Z,20.84
2019-05-01T08:00:11.171Z,21.22
2019-05-01T08:02:42.385Z,19.14
2019-05-01T08:05:13.585Z,20.43
2019-05-01T08:07:44.631Z,19.41
2019-05-01T08:10:15.861Z,19.51
2019-05-01T08:12:46.894Z,17.86
2019-05-01T08:15:18.085Z,16.62
2019-05-01T08:17:53.165Z,15.98
2019-05-01T08:20:31.066Z,15.32
2019-05-01T08:23:02.055Z,15.86
2019-05-01T08:25:34.438Z,16.15
2019-05-01T08:28:12.279Z,16.39
2019-05-01T08:31:09.740Z,17.18
2019-05-01T08:33:55.485Z,17.28
2019-05-01T08:36:26.532Z,15.74
2019-05-01T08:38:57.592Z,15.28
2019-05-01T08:41:32.015Z,15.21
2019-05-01T08:44:01.358Z,15.97
2019-05-01T08:46:40.253Z,16.27
2019-05-01T08:49:36.399Z,15.42
2019-05-01T08:52:12.541Z,16.39
2019-05-01T08:54:40.178Z,16.30
2019-05-01T08:57:11.151Z,15.66
2019-05-01T08:59:42.186Z,15.16
2019-05-01T09:02:13.339Z,15.08
2019-05-01T09:04:44.413Z,14.91
2019-05-01T09:07:19.069Z,15.75
2019-05-01T09:09:48.267Z,15.75
2019-05-01T09:12:19.252Z,16.13
2019-05-01T09:14:51.285Z,16.53
2019-05-01T09:17:22.621Z,16.52
2019-05-01T09:19:53.650Z,16.84
2019-05-01T09:22:24.749Z,16.07
2019-05-01T09:25:00.074Z,16.13
2019-05-01T09:27:45.269Z,15.55
2019-05-01T09:30:27.015Z,15.70
2019-05-01T09:32:56.826Z,15.49
2019-05-01T09:35:27.991Z,15.56
2019-05-01T09:37:58.996Z,15.75
2019-05-01T09:40:30.103Z,15.73
2019-05-01T09:43:01.241Z,15.59
2019-05-01T09:45:32.289Z,15.51
2019-05-01T09:48:03.394Z,15.35
2019-05-01T09:50:36.044Z,15.63
2019-05-01T09:53:29.717Z,15.87
2019-05-01T09:56:09.212Z,15.63
2019-05-01T09:58:40.288Z,15.62
2019-05-01T10:01:11.360Z,15.84
2019-05-01T10:03:44.779Z,15.72
2019-05-01T10:06:17.192Z,15.93
2019-05-01T10:08:48.528Z,16.24
2019-05-01T10:11:19.504Z,16.11
2019-05-01T10:13:53.615Z,16.70
2019-05-01T10:16:23.278Z,15.93
2019-05-01T10:18:54.299Z,16.15
2019-05-01T10:21:27.334Z,16.15
2019-05-01T10:23:57.960Z,17.05
2019-05-01T10:26:30.615Z,17.10
2019-05-01T10:29:21.455Z,17.21
2019-05-01T10:32:05.749Z,17.13
2019-05-01T10:34:44.629Z,17.04
2019-05-01T10:37:15.673Z,17.08
2019-05-01T10:39:50.256Z,16.26
2019-05-01T10:42:19.337Z,16.08
2019-05-01T10:44:50.308Z,16.18
2019-05-01T10:47:21.461Z,16.18
2019-05-01T10:49:52.427Z,16.03
2019-05-01T10:52:23.407Z,16.12
2019-05-01T10:54:54.462Z,16.01
2019-05-01T10:57:25.441Z,16.67
2019-05-01T10:59:56.423Z,16.96
2019-05-01T11:02:27.908Z,17.36
2019-05-01T11:04:58.966Z,16.68
2019-05-01T11:07:29.954Z,16.21
2019-05-01T11:10:00.998Z,17.14
2019-05-01T11:12:33.061Z,17.48
2019-05-01T11:15:04.363Z,17.19
2019-05-01T11:17:36.847Z,17.21
2019-05-01T11:20:08.418Z,17.08
2019-05-01T11:22:39.419Z,17.16
2019-05-01T11:25:11.217Z,17.67
2019-05-01T11:27:43.202Z,17.17
2019-05-01T11:30:15.173Z,16.63
2019-05-01T11:33:11.011Z,16.54
2019-05-01T11:36:09.526Z,17.16
2019-05-01T11:38:46.316Z,17.18
2019-05-01T11:41:24.053Z,17.15
2019-05-01T11:43:55.093Z,16.73
2019-05-01T11:46:26.140Z,17.18
2019-05-01T11:48:57.152Z,16.87
2019-05-01T11:51:28.239Z,16.74
2019-05-01T11:54:02.064Z,17.67
2019-05-01T11:56:31.914Z,17.50
2019-05-01T11:59:03.003Z,17.93
2019-05-01T12:01:34.096Z,16.78
2019-05-01T12:04:05.213Z,16.89
2019-05-01T12:06:36.180Z,17.26
2019-05-01T12:09:08.262Z,17.57
2019-05-01T12:15:27.667Z,17.31
2019-05-01T12:17:58.672Z,17.84
2019-05-01T12:20:29.870Z,18.06
2019-05-01T12:23:01.034Z,18.23
2019-05-01T12:25:32.110Z,18.18
2019-05-01T12:28:03.223Z,18.16
2019-05-01T12:30:34.282Z,17.78
2019-05-01T12:33:05.446Z,17.23
2019-05-01T12:35:36.442Z,17.35
2019-05-01T12:38:07.441Z,17.02
2019-05-01T12:40:38.609Z,17.36
2019-05-01T12:43:12.267Z,17.08
2019-05-01T12:45:45.596Z,17.16
2019-05-01T12:48:16.574Z,17.22
2019-05-01T12:50:49.531Z,17.27
2019-05-01T12:53:28.903Z,16.81
2019-05-01T12:56:37.193Z,17.18
2019-05-01T12:59:08.179Z,17.53
2019-05-01T13:01:39.167Z,16.72
2019-05-01T13:04:10.150Z,17.31
2019-05-01T13:06:49.095Z,17.66
2019-05-01T13:09:14.110Z,17.40
2019-05-01T13:11:45.162Z,17.43
2019-05-01T13:14:16.230Z,17.77
2019-05-01T13:16:47.217Z,17.38
2019-05-01T13:19:18.289Z,17.76
2019-05-01T13:21:49.295Z,17.63
2019-05-01T13:24:20.275Z,17.60
2019-05-01T13:26:57.554Z,18.11
2019-05-01T13:29:33.537Z,18.19
2019-05-01T13:32:13.731Z,18.27
2019-05-01T13:34:44.695Z,18.43
2019-05-01T13:37:15.789Z,18.01
2019-05-01T13:39:46.846Z,17.73
2019-05-01T13:42:17.850Z,18.50
2019-05-01T13:44:48.823Z,18.42
2019-05-01T13:47:19.931Z,18.32
2019-05-01T13:49:50.986Z,17.71
2019-05-01T13:52:22.043Z,17.55
2019-05-01T13:54:53.319Z,17.60
2019-05-01T13:57:24.516Z,17.75
2019-05-01T13:59:55.505Z,17.33
2019-05-01T14:02:26.799Z,17.48
2019-05-01T14:04:57.771Z,17.87
2019-05-01T14:07:28.827Z,18.13
2019-05-01T14:09:59.814Z,18.05
2019-05-01T14:12:30.932Z,17.68
2019-05-01T14:15:01.911Z,17.83
2019-05-01T14:17:33.207Z,17.87
2019-05-01T14:20:30.085Z,17.86
2019-05-01T14:23:05.835Z,17.52
2019-05-01T14:25:55.767Z,17.82
2019-05-01T14:28:26.756Z,17.50
2019-05-01T14:30:57.755Z,17.31
2019-05-01T14:33:28.820Z,18.02
2019-05-01T14:35:59.847Z,18.01
2019-05-01T14:38:30.865Z,18.28
2019-05-01T14:41:02.043Z,18.02
2019-05-01T14:43:34.184Z,17.78
2019-05-01T14:46:05.405Z,18.30
2019-05-01T14:48:36.477Z,17.58
2019-05-01T14:51:07.544Z,17.83
2019-05-01T14:53:38.628Z,17.88
2019-05-01T14:56:10.378Z,17.76
2019-05-01T14:58:41.380Z,17.69
2019-05-01T15:01:12.468Z,17.80
2019-05-01T15:03:43.472Z,17.72
2019-05-01T15:06:14.509Z,18.29
2019-05-01T15:08:45.512Z,18.19
2019-05-01T15:11:16.501Z,18.35
2019-05-01T15:14:15.783Z,17.81
2019-05-01T15:17:02.784Z,18.14
2019-05-01T15:19:38.161Z,17.59
2019-05-01T15:22:09.175Z,17.78
2019-05-01T15:24:40.247Z,18.03
2019-05-01T15:27:11.299Z,17.93
2019-05-01T15:29:42.386Z,18.05
2019-05-01T15:32:13.353Z,17.64
2019-05-01T15:34:44.420Z,17.58
2019-05-01T15:37:16.551Z,17.04
2019-05-01T15:39:56.926Z,17.24
2019-05-01T15:42:42.736Z,17.40
2019-05-01T15:45:13.895Z,17.53
2019-05-01T15:47:44.955Z,17.71
2019-05-01T15:50:16.436Z,17.54
2019-05-01T15:52:47.567Z,17.32
2019-05-01T15:55:18.714Z,17.61
2019-05-01T15:57:49.861Z,17.16
2019-05-01T16:00:21.522Z,17.71
2019-05-01T16:02:52.498Z,18.00
2019-05-01T16:05:23.484Z,17.48
2019-05-01T16:07:54.589Z,17.59
2019-05-01T16:10:29.905Z,17.03
2019-05-01T16:13:02.358Z,17.52
2019-05-01T16:15:34.969Z,17.94
2019-05-01T16:18:07.122Z,17.98
2019-05-01T16:20:38.141Z,17.70
2019-05-01T16:23:09.199Z,17.87
2019-05-01T16:25:40.206Z,17.87
2019-05-01T16:28:11.207Z,18.10
2019-05-01T16:30:42.201Z,17.83
2019-05-01T16:33:13.260Z,17.30
2019-05-01T16:35:44.265Z,17.42
2019-05-01T16:38:24.957Z,17.38
2019-05-01T16:41:07.853Z,17.30
2019-05-01T16:43:38.834Z,17.09
2019-05-01T16:46:10.096Z,17.52
2019-05-01T16:49:05.250Z,17.71
2019-05-01T16:51:37.216Z,17.83
2019-05-01T16:54:08.774Z,17.25
2019-05-01T16:56:39.768Z,17.45
2019-05-01T16:59:11.091Z,17.36
2019-05-01T17:01:49.287Z,17.26
2019-05-01T17:04:42.347Z,17.21
2019-05-01T17:07:31.106Z,17.13
2019-05-01T17:10:14.394Z,16.89
2019-05-01T17:12:47.002Z,16.44
2019-05-01T17:15:26.888Z,16.58
2019-05-01T17:17:57.872Z,16.65
2019-05-01T17:20:29.156Z,16.67
2019-05-01T17:23:01.270Z,16.43
2019-05-01T17:25:32.394Z,16.55
2019-05-01T17:28:08.345Z,16.43
2019-05-01T17:30:51.959Z,16.83
2019-05-01T17:33:23.076Z,16.66
2019-05-01T17:35:54.127Z,17.01
2019-05-01T17:38:25.591Z,16.86
2019-05-01T17:40:56.605Z,16.83
2019-05-01T17:43:27.610Z,16.85
2019-05-01T17:45:58.703Z,17.03
2019-05-01T17:48:33.681Z,16.87
2019-05-01T17:51:02.435Z,16.86
2019-05-01T17:53:33.449Z,16.76
2019-05-01T17:56:04.643Z,16.84
2019-05-01T17:58:35.636Z,16.81
2019-05-01T18:01:27.923Z,16.72
2019-05-01T18:04:29.572Z,16.45
2019-05-01T18:07:00.873Z,16.31
2019-05-01T18:09:32.107Z,16.47
2019-05-01T18:12:03.181Z,16.51
2019-05-01T18:14:34.194Z,16.48
2019-05-01T18:17:05.347Z,16.25
2019-05-01T18:19:36.323Z,16.09
2019-05-01T18:22:14.445Z,15.99
2019-05-01T18:24:58.534Z,16.07
2019-05-01T18:27:49.875Z,15.93
2019-05-01T18:30:22.321Z,15.76
2019-05-01T18:32:53.498Z,15.73
2019-05-01T18:35:24.692Z,15.71
2019-05-01T18:38:01.348Z,15.62
2019-05-01T18:40:54.390Z,15.48
2019-05-01T18:43:27.049Z,15.37
2019-05-01T18:45:59.590Z,15.31
2019-05-01T18:48:30.736Z,15.20
2019-05-01T18:51:01.717Z,15.06
2019-05-01T18:53:32.746Z,14.94
2019-05-01T18:56:05.494Z,14.99
2019-05-01T18:58:36.470Z,14.90
2019-05-01T19:01:09.326Z,14.79
2019-05-01T19:03:42.296Z,14.72
2019-05-01T19:06:13.383Z,14.56
2019-05-01T19:08:45.130Z,14.60
2019-05-01T19:11:16.564Z,14.31
2019-05-01T19:13:47.652Z,14.28
2019-05-01T19:16:18.657Z,14.24
2019-05-01T19:18:49.681Z,14.34
2019-05-01T19:21:23.823Z,13.81
2019-05-01T19:24:00.564Z,13.54
2019-05-01T19:26:28.102Z,13.68
2019-05-01T19:28:59.244Z,13.65
2019-05-01T19:31:30.456Z,13.81
2019-05-01T19:34:01.521Z,13.58
2019-05-01T19:36:32.553Z,13.58
2019-05-01T19:39:06.736Z,13.52
2019-05-01T19:41:37.116Z,13.34
2019-05-01T19:44:08.193Z,13.32
2019-05-01T19:46:39.311Z,13.32
2019-05-01T19:49:10.433Z,13.17
2019-05-01T19:51:41.582Z,13.07
2019-05-01T19:54:12.591Z,13.05
2019-05-01T19:56:44.774Z,13.01
2019-05-01T19:59:16.043Z,13.09
2019-05-01T20:01:50.155Z,13.09
2019-05-01T20:04:21.494Z,13.06
2019-05-01T20:06:52.579Z,13.07
2019-05-01T20:09:23.659Z,12.89
2019-05-01T20:11:55.496Z,13.06
2019-05-01T20:14:26.604Z,12.76
2019-05-01T20:16:59.216Z,12.86
2019-05-01T20:19:31.328Z,12.76
2019-05-01T20:22:02.618Z,12.86
2019-05-01T20:24:33.671Z,12.61
2019-05-01T20:27:05.271Z,12.60
2019-05-01T20:29:36.828Z,12.58
2019-05-01T20:32:08.055Z,12.45
2019-05-01T20:34:39.078Z,12.48
2019-05-01T20:37:10.044Z,12.48
2019-05-01T20:39:42.115Z,12.33
2019-05-01T20:42:13.178Z,12.30
2019-05-01T20:44:44.444Z,12.19
2019-05-01T20:47:15.420Z,12.20
2019-05-01T20:49:46.443Z,12.22
2019-05-01T20:52:17.481Z,12.20
2019-05-01T20:54:48.461Z,12.04
2019-05-01T20:57:25.943Z,12.22
2019-05-01T20:59:56.969Z,11.99
2019-05-01T21:02:28.137Z,11.82
2019-05-01T21:05:23.787Z,11.76
2019-05-01T21:08:08.292Z,11.67
2019-05-01T21:10:53.167Z,11.68
2019-05-01T21:13:25.149Z,11.73
2019-05-01T21:16:01.543Z,11.57
2019-05-01T21:18:29.172Z,11.50
2019-05-01T21:21:00.234Z,11.56
2019-05-01T21:23:33.363Z,11.57
2019-05-01T21:26:04.014Z,11.58
2019-05-01T21:28:34.984Z,11.53
2019-05-01T21:31:06.078Z,11.59
2019-05-01T21:33:40.838Z,11.44
2019-05-01T21:36:09.835Z,11.39
2019-05-01T21:38:40.823Z,11.48
2019-05-01T21:41:11.959Z,11.29
2019-05-01T21:43:43.003Z,11.17
2019-05-01T21:46:13.989Z,11.19
2019-05-01T21:48:44.967Z,11.09
2019-05-01T21:51:15.953Z,11.24
2019-05-01T21:53:46.922Z,11.14
2019-05-01T21:56:17.933Z,11.19
2019-05-01T21:58:48.937Z,11.06
2019-05-01T22:01:20.282Z,11.05
2019-05-01T22:03:52.514Z,10.94
2019-05-01T22:06:24.044Z,11.05
2019-05-01T22:08:55.118Z,10.92
2019-05-01T22:11:26.203Z,11.06
2019-05-01T22:14:00.231Z,10.74
2019-05-01T22:16:31.252Z,10.86
2019-05-01T22:19:08.059Z,10.76
2019-05-01T22:21:55.804Z,10.59
2019-05-01T22:24:41.116Z,10.62
2019-05-01T22:27:16.730Z,10.64
2019-05-01T22:30:10.955Z,10.47
2019-05-01T22:32:47.123Z,10.23
2019-05-01T22:35:23.762Z,10.24
2019-05-01T22:37:55.128Z,10.26
2019-05-01T22:41:04.764Z,10.26
2019-05-01T22:43:25.939Z,10.28
2019-05-01T22:46:01.548Z,10.38
2019-05-01T22:48:32.185Z,10.34
2019-05-01T22:51:10.549Z,10.22
2019-05-01T22:53:41.550Z,10.18
2019-05-01T22:56:12.598Z,10.29
2019-05-01T22:58:43.654Z,10.24
2019-05-01T23:01:18.208Z,10.35
2019-05-01T23:03:52.644Z,10.55
2019-05-01T23:06:23.787Z,10.56
2019-05-01T23:08:54.771Z,10.56
2019-05-01T23:11:28.696Z,10.49
2019-05-01T23:13:59.731Z,10.72
2019-05-01T23:16:34.994Z,10.33
2019-05-01T23:19:06.314Z,10.34
2019-05-01T23:21:37.437Z,10.50
2019-05-01T23:24:08.619Z,10.51
2019-05-01T23:26:39.686Z,10.56
2019-05-01T23:29:10.716Z,10.52
2019-05-01T23:31:41.700Z,10.47
2019-05-01T23:34:12.660Z,10.53
2019-05-01T23:36:44.700Z,10.29
2019-05-01T23:39:16.031Z,10.46
2019-05-01T23:41:47.284Z,10.61
2019-05-01T23:44:18.490Z,10.45
2019-05-01T23:46:49.625Z,10.42
2019-05-01T23:49:20.632Z,10.51
2019-05-01T23:51:51.767Z,10.49
2019-05-01T23:54:22.718Z,10.28
2019-05-01T23:56:53.799Z,10.48
2019-05-01T23:59:24.902Z,10.56
